sensor_id;sensor_type;location;lat;lon;timestamp;P1;durP1;ratioP1;P2;durP2;ratioP2
16314;SDS011;8266;52.150;4.768;2024-02-15T00:01:14;8.02;;;2.10;;
16314;SDS011;8266;52.150;4.768;2024-02-15T00:03:41;7.03;;;2.50;;
16314;SDS011;8266;52.150;4.768;2024-02-15T00:06:09;7.95;;;2.75;;
16314;SDS011;8266;52.150;4.768;2024-02-15T00:08:37;7.88;;;2.88;;
16314;SDS011;8266;52.150;4.768;2024-02-15T00:11:05;3.90;;;2.90;;
16314;SDS011;8266;52.150;4.768;2024-02-15T00:13:36;5.70;;;3.10;;
16314;SDS011;8266;52.150;4.768;2024-02-15T00:16:03;5.80;;;2.90;;
16314;SDS011;8266;52.150;4.768;2024-02-15T00:18:31;10.02;;;3.47;;
16314;SDS011;8266;52.150;4.768;2024-02-15T00:20:59;7.22;;;3.42;;
16314;SDS011;8266;52.150;4.768;2024-02-15T00:23:26;7.75;;;3.38;;
16314;SDS011;8266;52.150;4.768;2024-02-15T00:25:53;7.72;;;4.45;;
16314;SDS011;8266;52.150;4.768;2024-02-15T00:28:22;7.20;;;3.28;;
16314;SDS011;8266;52.150;4.768;2024-02-15T00:30:49;8.25;;;4.15;;
16314;SDS011;8266;52.150;4.768;2024-02-15T00:33:16;7.95;;;3.80;;
16314;SDS011;8266;52.150;4.768;2024-02-15T00:35:44;5.85;;;3.33;;
16314;SDS011;8266;52.150;4.768;2024-02-15T00:38:11;6.97;;;3.63;;
16314;SDS011;8266;52.150;4.768;2024-02-15T00:40:38;6.72;;;3.38;;
16314;SDS011;8266;52.150;4.768;2024-02-15T00:43:05;8.18;;;3.50;;
16314;SDS011;8266;52.150;4.768;2024-02-15T00:45:34;7.22;;;3.38;;
16314;SDS011;8266;52.150;4.768;2024-02-15T00:48:02;7.78;;;3.05;;
16314;SDS011;8266;52.150;4.768;2024-02-15T00:50:37;5.43;;;2.72;;
16314;SDS011;8266;52.150;4.768;2024-02-15T00:53:04;6.10;;;2.45;;
16314;SDS011;8266;52.150;4.768;2024-02-15T00:55:32;5.60;;;2.80;;
16314;SDS011;8266;52.150;4.768;2024-02-15T00:57:59;6.53;;;2.38;;
16314;SDS011;8266;52.150;4.768;2024-02-15T01:00:26;5.43;;;2.88;;
16314;SDS011;8266;52.150;4.768;2024-02-15T01:02:54;4.40;;;3.00;;
16314;SDS011;8266;52.150;4.768;2024-02-15T01:05:22;7.18;;;3.03;;
16314;SDS011;8266;52.150;4.768;2024-02-15T01:07:49;6.55;;;3.85;;
16314;SDS011;8266;52.150;4.768;2024-02-15T01:10:17;7.38;;;3.80;;
16314;SDS011;8266;52.150;4.768;2024-02-15T01:12:45;6.53;;;3.90;;
16314;SDS011;8266;52.150;4.768;2024-02-15T01:15:12;6.47;;;3.38;;
16314;SDS011;8266;52.150;4.768;2024-02-15T01:17:39;7.97;;;3.72;;
16314;SDS011;8266;52.150;4.768;2024-02-15T01:20:08;8.07;;;3.63;;
16314;SDS011;8266;52.150;4.768;2024-02-15T01:22:36;4.45;;;3.20;;
16314;SDS011;8266;52.150;4.768;2024-02-15T01:25:03;7.57;;;3.20;;
16314;SDS011;8266;52.150;4.768;2024-02-15T01:27:32;8.25;;;4.43;;
16314;SDS011;8266;52.150;4.768;2024-02-15T01:29:59;7.70;;;3.90;;
16314;SDS011;8266;52.150;4.768;2024-02-15T01:32:26;6.60;;;3.63;;
16314;SDS011;8266;52.150;4.768;2024-02-15T01:34:53;5.72;;;3.60;;
16314;SDS011;8266;52.150;4.768;2024-02-15T01:37:22;5.32;;;3.55;;
16314;SDS011;8266;52.150;4.768;2024-02-15T01:39:49;6.50;;;3.50;;
16314;SDS011;8266;52.150;4.768;2024-02-15T01:42:17;7.72;;;4.53;;
16314;SDS011;8266;52.150;4.768;2024-02-15T01:44:44;5.75;;;3.80;;
16314;SDS011;8266;52.150;4.768;2024-02-15T01:47:14;9.07;;;4.70;;
16314;SDS011;8266;52.150;4.768;2024-02-15T01:49:43;9.90;;;3.80;;
16314;SDS011;8266;52.150;4.768;2024-02-15T01:52:10;10.27;;;4.43;;
16314;SDS011;8266;52.150;4.768;2024-02-15T01:54:41;6.57;;;3.83;;
16314;SDS011;8266;52.150;4.768;2024-02-15T01:57:08;8.38;;;4.00;;
16314;SDS011;8266;52.150;4.768;2024-02-15T01:59:35;5.68;;;3.70;;
16314;SDS011;8266;52.150;4.768;2024-02-15T02:02:03;5.05;;;3.90;;
16314;SDS011;8266;52.150;4.768;2024-02-15T02:04:34;6.20;;;3.55;;
16314;SDS011;8266;52.150;4.768;2024-02-15T02:07:01;7.35;;;3.97;;
16314;SDS011;8266;52.150;4.768;2024-02-15T02:09:28;5.28;;;3.50;;
16314;SDS011;8266;52.150;4.768;2024-02-15T02:11:57;5.85;;;3.40;;
16314;SDS011;8266;52.150;4.768;2024-02-15T02:14:24;5.07;;;3.75;;
16314;SDS011;8266;52.150;4.768;2024-02-15T02:16:52;7.10;;;4.10;;
16314;SDS011;8266;52.150;4.768;2024-02-15T02:19:20;8.00;;;3.55;;
16314;SDS011;8266;52.150;4.768;2024-02-15T02:21:47;7.55;;;3.58;;
16314;SDS011;8266;52.150;4.768;2024-02-15T02:24:18;6.45;;;3.88;;
16314;SDS011;8266;52.150;4.768;2024-02-15T02:26:50;5.68;;;3.42;;
16314;SDS011;8266;52.150;4.768;2024-02-15T02:29:19;7.78;;;3.65;;
16314;SDS011;8266;52.150;4.768;2024-02-15T02:31:46;9.38;;;3.70;;
16314;SDS011;8266;52.150;4.768;2024-02-15T02:34:14;5.28;;;3.35;;
16314;SDS011;8266;52.150;4.768;2024-02-15T02:36:43;6.13;;;3.67;;
16314;SDS011;8266;52.150;4.768;2024-02-15T02:39:10;7.18;;;3.38;;
16314;SDS011;8266;52.150;4.768;2024-02-15T02:41:37;6.35;;;3.50;;
16314;SDS011;8266;52.150;4.768;2024-02-15T02:44:06;10.20;;;4.40;;
16314;SDS011;8266;52.150;4.768;2024-02-15T02:46:33;7.15;;;3.20;;
16314;SDS011;8266;52.150;4.768;2024-02-15T02:49:00;4.93;;;3.60;;
16314;SDS011;8266;52.150;4.768;2024-02-15T02:51:27;7.00;;;4.22;;
16314;SDS011;8266;52.150;4.768;2024-02-15T02:53:54;8.80;;;4.25;;
16314;SDS011;8266;52.150;4.768;2024-02-15T02:56:21;9.40;;;4.47;;
16314;SDS011;8266;52.150;4.768;2024-02-15T02:58:49;6.97;;;3.80;;
16314;SDS011;8266;52.150;4.768;2024-02-15T03:01:19;6.00;;;3.75;;
16314;SDS011;8266;52.150;4.768;2024-02-15T03:03:51;8.43;;;4.75;;
16314;SDS011;8266;52.150;4.768;2024-02-15T03:06:20;5.80;;;3.88;;
16314;SDS011;8266;52.150;4.768;2024-02-15T03:08:49;6.10;;;4.20;;
16314;SDS011;8266;52.150;4.768;2024-02-15T03:11:19;5.90;;;3.72;;
16314;SDS011;8266;52.150;4.768;2024-02-15T03:13:46;5.03;;;3.90;;
16314;SDS011;8266;52.150;4.768;2024-02-15T03:16:14;8.75;;;4.35;;
16314;SDS011;8266;52.150;4.768;2024-02-15T03:18:43;4.70;;;3.83;;
16314;SDS011;8266;52.150;4.768;2024-02-15T03:21:11;8.40;;;3.90;;
16314;SDS011;8266;52.150;4.768;2024-02-15T03:23:38;8.10;;;3.78;;
16314;SDS011;8266;52.150;4.768;2024-02-15T03:26:07;9.75;;;3.97;;
16314;SDS011;8266;52.150;4.768;2024-02-15T03:28:34;6.68;;;3.55;;
16314;SDS011;8266;52.150;4.768;2024-02-15T03:31:03;6.55;;;3.38;;
16314;SDS011;8266;52.150;4.768;2024-02-15T03:33:30;6.60;;;3.22;;
16314;SDS011;8266;52.150;4.768;2024-02-15T03:36:01;6.88;;;3.22;;
16314;SDS011;8266;52.150;4.768;2024-02-15T03:38:28;6.32;;;3.17;;
16314;SDS011;8266;52.150;4.768;2024-02-15T03:40:56;5.00;;;2.88;;
16314;SDS011;8266;52.150;4.768;2024-02-15T03:43:23;6.35;;;2.67;;
16314;SDS011;8266;52.150;4.768;2024-02-15T03:45:51;6.50;;;3.03;;
16314;SDS011;8266;52.150;4.768;2024-02-15T03:48:17;7.50;;;2.75;;
16314;SDS011;8266;52.150;4.768;2024-02-15T03:50:45;8.20;;;3.10;;
16314;SDS011;8266;52.150;4.768;2024-02-15T03:53:14;7.68;;;3.30;;
16314;SDS011;8266;52.150;4.768;2024-02-15T03:55:41;6.57;;;2.67;;
16314;SDS011;8266;52.150;4.768;2024-02-15T03:58:09;5.28;;;3.13;;
16314;SDS011;8266;52.150;4.768;2024-02-15T04:00:37;8.23;;;3.33;;
16314;SDS011;8266;52.150;4.768;2024-02-15T04:03:05;8.27;;;3.05;;
16314;SDS011;8266;52.150;4.768;2024-02-15T04:05:32;6.35;;;2.88;;
16314;SDS011;8266;52.150;4.768;2024-02-15T04:07:59;6.35;;;3.08;;
16314;SDS011;8266;52.150;4.768;2024-02-15T04:10:29;6.97;;;3.40;;
16314;SDS011;8266;52.150;4.768;2024-02-15T04:12:56;8.18;;;3.05;;
16314;SDS011;8266;52.150;4.768;2024-02-15T04:15:24;4.72;;;3.08;;
16314;SDS011;8266;52.150;4.768;2024-02-15T04:17:51;6.72;;;3.45;;
16314;SDS011;8266;52.150;4.768;2024-02-15T04:20:22;7.25;;;3.53;;
16314;SDS011;8266;52.150;4.768;2024-02-15T04:22:50;7.15;;;3.70;;
16314;SDS011;8266;52.150;4.768;2024-02-15T04:25:17;6.07;;;3.22;;
16314;SDS011;8266;52.150;4.768;2024-02-15T04:27:49;6.60;;;3.60;;
16314;SDS011;8266;52.150;4.768;2024-02-15T04:30:19;8.20;;;3.97;;
16314;SDS011;8266;52.150;4.768;2024-02-15T04:32:48;8.45;;;4.40;;
16314;SDS011;8266;52.150;4.768;2024-02-15T04:35:16;4.50;;;3.47;;
16314;SDS011;8266;52.150;4.768;2024-02-15T04:37:44;7.32;;;3.88;;
16314;SDS011;8266;52.150;4.768;2024-02-15T04:40:12;5.55;;;3.30;;
16314;SDS011;8266;52.150;4.768;2024-02-15T04:42:39;6.90;;;4.00;;
16314;SDS011;8266;52.150;4.768;2024-02-15T04:45:10;4.07;;;3.40;;
16314;SDS011;8266;52.150;4.768;2024-02-15T04:47:38;5.70;;;3.45;;
16314;SDS011;8266;52.150;4.768;2024-02-15T04:50:06;5.85;;;3.72;;
16314;SDS011;8266;52.150;4.768;2024-02-15T04:52:34;4.55;;;3.72;;
16314;SDS011;8266;52.150;4.768;2024-02-15T04:55:01;5.72;;;3.65;;
16314;SDS011;8266;52.150;4.768;2024-02-15T04:57:30;5.00;;;3.85;;
16314;SDS011;8266;52.150;4.768;2024-02-15T04:59:59;4.95;;;3.53;;
16314;SDS011;8266;52.150;4.768;2024-02-15T05:02:28;6.40;;;4.03;;
16314;SDS011;8266;52.150;4.768;2024-02-15T05:04:55;6.43;;;4.25;;
16314;SDS011;8266;52.150;4.768;2024-02-15T05:07:22;6.30;;;3.75;;
16314;SDS011;8266;52.150;4.768;2024-02-15T05:09:49;4.38;;;3.65;;
16314;SDS011;8266;52.150;4.768;2024-02-15T05:12:22;6.55;;;4.50;;
16314;SDS011;8266;52.150;4.768;2024-02-15T05:14:50;7.43;;;4.95;;
16314;SDS011;8266;52.150;4.768;2024-02-15T05:17:18;5.00;;;4.30;;
16314;SDS011;8266;52.150;4.768;2024-02-15T05:19:48;5.18;;;4.47;;
16314;SDS011;8266;52.150;4.768;2024-02-15T05:22:16;6.25;;;5.13;;
16314;SDS011;8266;52.150;4.768;2024-02-15T05:24:43;5.25;;;4.63;;
16314;SDS011;8266;52.150;4.768;2024-02-15T05:27:10;7.13;;;4.93;;
16314;SDS011;8266;52.150;4.768;2024-02-15T05:29:37;5.38;;;4.80;;
16314;SDS011;8266;52.150;4.768;2024-02-15T05:32:06;6.78;;;5.38;;
16314;SDS011;8266;52.150;4.768;2024-02-15T05:34:34;6.22;;;5.13;;
16314;SDS011;8266;52.150;4.768;2024-02-15T05:37:06;6.80;;;6.00;;
16314;SDS011;8266;52.150;4.768;2024-02-15T05:39:33;8.05;;;6.05;;
16314;SDS011;8266;52.150;4.768;2024-02-15T05:42:00;6.25;;;5.65;;
16314;SDS011;8266;52.150;4.768;2024-02-15T05:44:27;6.22;;;5.72;;
16314;SDS011;8266;52.150;4.768;2024-02-15T05:46:55;7.07;;;6.38;;
16314;SDS011;8266;52.150;4.768;2024-02-15T05:49:22;9.48;;;6.50;;
16314;SDS011;8266;52.150;4.768;2024-02-15T05:51:51;8.20;;;6.35;;
16314;SDS011;8266;52.150;4.768;2024-02-15T05:54:21;8.98;;;6.35;;
16314;SDS011;8266;52.150;4.768;2024-02-15T05:56:48;10.63;;;6.10;;
16314;SDS011;8266;52.150;4.768;2024-02-15T05:59:19;7.25;;;6.50;;
16314;SDS011;8266;52.150;4.768;2024-02-15T06:01:46;10.57;;;7.38;;
16314;SDS011;8266;52.150;4.768;2024-02-15T06:04:14;9.82;;;6.95;;
16314;SDS011;8266;52.150;4.768;2024-02-15T06:06:42;8.05;;;6.82;;
16314;SDS011;8266;52.150;4.768;2024-02-15T06:09:14;9.75;;;7.28;;
16314;SDS011;8266;52.150;4.768;2024-02-15T06:11:46;7.80;;;6.90;;
16314;SDS011;8266;52.150;4.768;2024-02-15T06:14:16;9.82;;;6.82;;
16314;SDS011;8266;52.150;4.768;2024-02-15T06:16:43;9.70;;;7.45;;
16314;SDS011;8266;52.150;4.768;2024-02-15T06:19:10;8.30;;;7.03;;
16314;SDS011;8266;52.150;4.768;2024-02-15T06:21:37;9.00;;;7.00;;
16314;SDS011;8266;52.150;4.768;2024-02-15T06:24:04;7.85;;;6.80;;
16314;SDS011;8266;52.150;4.768;2024-02-15T06:26:31;8.77;;;7.15;;
16314;SDS011;8266;52.150;4.768;2024-02-15T06:29:01;8.00;;;7.20;;
16314;SDS011;8266;52.150;4.768;2024-02-15T06:31:45;8.88;;;7.13;;
16314;SDS011;8266;52.150;4.768;2024-02-15T06:34:29;8.18;;;6.70;;
16314;SDS011;8266;52.150;4.768;2024-02-15T06:37:26;8.57;;;7.40;;
16314;SDS011;8266;52.150;4.768;2024-02-15T06:40:19;9.13;;;6.80;;
16314;SDS011;8266;52.150;4.768;2024-02-15T06:42:47;7.15;;;6.45;;
16314;SDS011;8266;52.150;4.768;2024-02-15T06:45:16;7.78;;;6.97;;
16314;SDS011;8266;52.150;4.768;2024-02-15T06:47:43;7.78;;;6.90;;
16314;SDS011;8266;52.150;4.768;2024-02-15T06:50:10;8.00;;;6.57;;
16314;SDS011;8266;52.150;4.768;2024-02-15T06:52:38;6.22;;;5.63;;
16314;SDS011;8266;52.150;4.768;2024-02-15T06:55:06;7.35;;;5.93;;
16314;SDS011;8266;52.150;4.768;2024-02-15T06:57:37;6.28;;;5.60;;
16314;SDS011;8266;52.150;4.768;2024-02-15T07:00:05;5.78;;;5.28;;
16314;SDS011;8266;52.150;4.768;2024-02-15T07:02:35;5.55;;;5.05;;
16314;SDS011;8266;52.150;4.768;2024-02-15T07:05:03;5.22;;;4.18;;
16314;SDS011;8266;52.150;4.768;2024-02-15T07:07:31;5.10;;;4.55;;
16314;SDS011;8266;52.150;4.768;2024-02-15T07:09:59;4.95;;;4.32;;
16314;SDS011;8266;52.150;4.768;2024-02-15T07:12:28;5.45;;;4.95;;
16314;SDS011;8266;52.150;4.768;2024-02-15T07:14:57;4.75;;;3.80;;
16314;SDS011;8266;52.150;4.768;2024-02-15T07:17:26;4.97;;;4.55;;
16314;SDS011;8266;52.150;4.768;2024-02-15T07:19:55;4.28;;;3.70;;
16314;SDS011;8266;52.150;4.768;2024-02-15T07:22:25;4.45;;;3.80;;
16314;SDS011;8266;52.150;4.768;2024-02-15T07:24:52;4.85;;;4.22;;
16314;SDS011;8266;52.150;4.768;2024-02-15T07:27:19;4.50;;;4.10;;
16314;SDS011;8266;52.150;4.768;2024-02-15T07:29:48;4.90;;;3.70;;
16314;SDS011;8266;52.150;4.768;2024-02-15T07:32:17;5.28;;;4.10;;
16314;SDS011;8266;52.150;4.768;2024-02-15T07:34:45;4.22;;;3.78;;
16314;SDS011;8266;52.150;4.768;2024-02-15T07:37:14;4.78;;;4.20;;
16314;SDS011;8266;52.150;4.768;2024-02-15T07:39:41;4.60;;;3.90;;
16314;SDS011;8266;52.150;4.768;2024-02-15T07:42:09;4.07;;;3.67;;
16314;SDS011;8266;52.150;4.768;2024-02-15T07:44:37;3.88;;;3.47;;
16314;SDS011;8266;52.150;4.768;2024-02-15T07:47:04;6.68;;;3.50;;
16314;SDS011;8266;52.150;4.768;2024-02-15T07:49:32;4.18;;;3.78;;
16314;SDS011;8266;52.150;4.768;2024-02-15T07:51:59;3.92;;;3.63;;
16314;SDS011;8266;52.150;4.768;2024-02-15T07:54:30;4.88;;;3.50;;
16314;SDS011;8266;52.150;4.768;2024-02-15T07:56:58;4.28;;;3.70;;
16314;SDS011;8266;52.150;4.768;2024-02-15T07:59:25;3.80;;;3.30;;
16314;SDS011;8266;52.150;4.768;2024-02-15T08:01:53;3.95;;;3.28;;
16314;SDS011;8266;52.150;4.768;2024-02-15T08:04:21;3.60;;;3.30;;
16314;SDS011;8266;52.150;4.768;2024-02-15T08:06:49;3.60;;;3.30;;
16314;SDS011;8266;52.150;4.768;2024-02-15T08:09:18;3.83;;;3.40;;
16314;SDS011;8266;52.150;4.768;2024-02-15T08:11:50;4.80;;;3.78;;
16314;SDS011;8266;52.150;4.768;2024-02-15T08:14:17;4.55;;;4.15;;
16314;SDS011;8266;52.150;4.768;2024-02-15T08:16:46;4.47;;;4.07;;
16314;SDS011;8266;52.150;4.768;2024-02-15T08:19:13;4.28;;;3.95;;
16314;SDS011;8266;52.150;4.768;2024-02-15T08:21:40;4.97;;;4.50;;
16314;SDS011;8266;52.150;4.768;2024-02-15T08:24:11;4.60;;;4.20;;
16314;SDS011;8266;52.150;4.768;2024-02-15T08:26:39;5.97;;;5.10;;
16314;SDS011;8266;52.150;4.768;2024-02-15T08:29:08;6.50;;;4.78;;
16314;SDS011;8266;52.150;4.768;2024-02-15T08:31:36;5.45;;;4.93;;
16314;SDS011;8266;52.150;4.768;2024-02-15T08:34:04;5.45;;;4.95;;
16314;SDS011;8266;52.150;4.768;2024-02-15T08:36:34;6.38;;;4.93;;
16314;SDS011;8266;52.150;4.768;2024-02-15T08:39:02;5.72;;;5.22;;
16314;SDS011;8266;52.150;4.768;2024-02-15T08:41:30;5.63;;;4.93;;
16314;SDS011;8266;52.150;4.768;2024-02-15T08:43:57;5.78;;;4.93;;
16314;SDS011;8266;52.150;4.768;2024-02-15T08:46:27;5.93;;;5.30;;
16314;SDS011;8266;52.150;4.768;2024-02-15T08:48:56;5.15;;;4.22;;
16314;SDS011;8266;52.150;4.768;2024-02-15T08:51:23;4.82;;;4.40;;
16314;SDS011;8266;52.150;4.768;2024-02-15T08:53:50;5.13;;;4.53;;
16314;SDS011;8266;52.150;4.768;2024-02-15T08:56:18;4.78;;;4.15;;
16314;SDS011;8266;52.150;4.768;2024-02-15T08:58:46;5.40;;;4.63;;
16314;SDS011;8266;52.150;4.768;2024-02-15T09:01:13;6.50;;;4.88;;
16314;SDS011;8266;52.150;4.768;2024-02-15T09:03:43;6.65;;;4.82;;
16314;SDS011;8266;52.150;4.768;2024-02-15T09:06:11;4.90;;;4.38;;
16314;SDS011;8266;52.150;4.768;2024-02-15T09:08:39;4.82;;;4.22;;
16314;SDS011;8266;52.150;4.768;2024-02-15T09:11:06;4.68;;;3.97;;
16314;SDS011;8266;52.150;4.768;2024-02-15T09:13:37;4.80;;;4.15;;
16314;SDS011;8266;52.150;4.768;2024-02-15T09:16:04;8.27;;;5.28;;
16314;SDS011;8266;52.150;4.768;2024-02-15T09:18:31;5.30;;;4.63;;
16314;SDS011;8266;52.150;4.768;2024-02-15T09:21:01;6.00;;;5.10;;
16314;SDS011;8266;52.150;4.768;2024-02-15T09:23:30;5.22;;;4.35;;
16314;SDS011;8266;52.150;4.768;2024-02-15T09:25:57;5.55;;;4.78;;
16314;SDS011;8266;52.150;4.768;2024-02-15T09:28:24;4.70;;;4.30;;
16314;SDS011;8266;52.150;4.768;2024-02-15T09:30:51;4.93;;;4.45;;
16314;SDS011;8266;52.150;4.768;2024-02-15T09:33:19;7.35;;;4.47;;
16314;SDS011;8266;52.150;4.768;2024-02-15T09:35:47;8.07;;;4.13;;
16314;SDS011;8266;52.150;4.768;2024-02-15T09:38:16;4.68;;;3.92;;
16314;SDS011;8266;52.150;4.768;2024-02-15T09:40:45;5.07;;;3.67;;
16314;SDS011;8266;52.150;4.768;2024-02-15T09:43:17;6.78;;;4.03;;
16314;SDS011;8266;52.150;4.768;2024-02-15T09:45:46;5.07;;;3.80;;
16314;SDS011;8266;52.150;4.768;2024-02-15T09:48:13;5.50;;;3.58;;
16314;SDS011;8266;52.150;4.768;2024-02-15T09:50:43;6.43;;;3.50;;
16314;SDS011;8266;52.150;4.768;2024-02-15T09:53:11;7.47;;;3.38;;
16314;SDS011;8266;52.150;4.768;2024-02-15T09:55:41;7.57;;;3.70;;
16314;SDS011;8266;52.150;4.768;2024-02-15T09:58:09;5.97;;;3.53;;
16314;SDS011;8266;52.150;4.768;2024-02-15T10:00:37;4.35;;;3.25;;
16314;SDS011;8266;52.150;4.768;2024-02-15T10:03:05;5.53;;;3.33;;
16314;SDS011;8266;52.150;4.768;2024-02-15T10:05:33;5.22;;;3.20;;
16314;SDS011;8266;52.150;4.768;2024-02-15T10:08:00;7.47;;;3.95;;
16314;SDS011;8266;52.150;4.768;2024-02-15T10:10:28;6.80;;;3.45;;
16314;SDS011;8266;52.150;4.768;2024-02-15T10:12:57;4.50;;;3.03;;
16314;SDS011;8266;52.150;4.768;2024-02-15T10:15:29;6.00;;;3.17;;
16314;SDS011;8266;52.150;4.768;2024-02-15T10:17:57;6.50;;;3.63;;
16314;SDS011;8266;52.150;4.768;2024-02-15T10:20:25;5.53;;;3.28;;
16314;SDS011;8266;52.150;4.768;2024-02-15T10:22:52;8.10;;;3.22;;
16314;SDS011;8266;52.150;4.768;2024-02-15T10:25:35;5.97;;;2.90;;
16314;SDS011;8266;52.150;4.768;2024-02-15T10:28:04;6.30;;;3.22;;
16314;SDS011;8266;52.150;4.768;2024-02-15T10:30:33;5.43;;;3.22;;
16314;SDS011;8266;52.150;4.768;2024-02-15T10:33:00;5.00;;;2.90;;
16314;SDS011;8266;52.150;4.768;2024-02-15T10:35:27;6.28;;;3.05;;
16314;SDS011;8266;52.150;4.768;2024-02-15T10:38:04;6.15;;;3.17;;
16314;SDS011;8266;52.150;4.768;2024-02-15T10:40:33;5.47;;;3.20;;
16314;SDS011;8266;52.150;4.768;2024-02-15T10:43:03;3.85;;;2.88;;
16314;SDS011;8266;52.150;4.768;2024-02-15T10:45:31;4.85;;;3.03;;
16314;SDS011;8266;52.150;4.768;2024-02-15T10:47:59;4.53;;;2.97;;
16314;SDS011;8266;52.150;4.768;2024-02-15T10:50:26;7.32;;;3.38;;
16314;SDS011;8266;52.150;4.768;2024-02-15T10:52:54;5.03;;;3.28;;
16314;SDS011;8266;52.150;4.768;2024-02-15T10:55:25;5.68;;;3.08;;
16314;SDS011;8266;52.150;4.768;2024-02-15T10:58:06;7.30;;;3.33;;
16314;SDS011;8266;52.150;4.768;2024-02-15T11:00:34;5.82;;;3.95;;
16314;SDS011;8266;52.150;4.768;2024-02-15T11:03:03;6.75;;;3.70;;
16314;SDS011;8266;52.150;4.768;2024-02-15T11:05:32;5.50;;;3.58;;
16314;SDS011;8266;52.150;4.768;2024-02-15T11:08:01;7.18;;;4.10;;
16314;SDS011;8266;52.150;4.768;2024-02-15T11:10:29;6.00;;;3.88;;
16314;SDS011;8266;52.150;4.768;2024-02-15T11:12:57;4.68;;;3.35;;
16314;SDS011;8266;52.150;4.768;2024-02-15T11:15:43;6.90;;;3.45;;
16314;SDS011;8266;52.150;4.768;2024-02-15T11:21:16;5.97;;;3.20;;
16314;SDS011;8266;52.150;4.768;2024-02-15T11:23:44;5.30;;;3.20;;
16314;SDS011;8266;52.150;4.768;2024-02-15T11:35:05;6.15;;;3.20;;
16314;SDS011;8266;52.150;4.768;2024-02-15T11:43:46;3.72;;;2.83;;
16314;SDS011;8266;52.150;4.768;2024-02-15T11:46:20;6.20;;;2.92;;
16314;SDS011;8266;52.150;4.768;2024-02-15T11:48:51;5.05;;;2.88;;
16314;SDS011;8266;52.150;4.768;2024-02-15T11:51:25;4.65;;;3.05;;
16314;SDS011;8266;52.150;4.768;2024-02-15T11:54:01;4.68;;;2.80;;
16314;SDS011;8266;52.150;4.768;2024-02-15T11:56:31;6.07;;;3.20;;
16314;SDS011;8266;52.150;4.768;2024-02-15T11:59:02;4.50;;;3.08;;
16314;SDS011;8266;52.150;4.768;2024-02-15T12:01:31;3.35;;;2.85;;
16314;SDS011;8266;52.150;4.768;2024-02-15T12:04:17;4.18;;;2.75;;
16314;SDS011;8266;52.150;4.768;2024-02-15T12:07:02;4.50;;;3.10;;
16314;SDS011;8266;52.150;4.768;2024-02-15T12:09:47;5.22;;;3.28;;
16314;SDS011;8266;52.150;4.768;2024-02-15T12:12:31;4.90;;;2.95;;
16314;SDS011;8266;52.150;4.768;2024-02-15T12:15:16;5.88;;;2.45;;
16314;SDS011;8266;52.150;4.768;2024-02-15T12:18:13;3.60;;;2.47;;
16314;SDS011;8266;52.150;4.768;2024-02-15T12:20:59;3.38;;;2.63;;
16314;SDS011;8266;52.150;4.768;2024-02-15T12:23:27;2.90;;;2.05;;
16314;SDS011;8266;52.150;4.768;2024-02-15T12:25:55;4.05;;;2.35;;
16314;SDS011;8266;52.150;4.768;2024-02-15T12:28:23;3.90;;;2.70;;
16314;SDS011;8266;52.150;4.768;2024-02-15T12:30:54;5.07;;;3.08;;
16314;SDS011;8266;52.150;4.768;2024-02-15T12:33:22;5.15;;;3.22;;
16314;SDS011;8266;52.150;4.768;2024-02-15T12:35:49;4.30;;;3.50;;
16314;SDS011;8266;52.150;4.768;2024-02-15T12:38:18;4.00;;;3.35;;
16314;SDS011;8266;52.150;4.768;2024-02-15T12:40:47;5.75;;;3.90;;
16314;SDS011;8266;52.150;4.768;2024-02-15T12:43:14;7.38;;;4.10;;
16314;SDS011;8266;52.150;4.768;2024-02-15T12:45:42;3.92;;;3.22;;
16314;SDS011;8266;52.150;4.768;2024-02-15T12:48:09;5.07;;;3.70;;
16314;SDS011;8266;52.150;4.768;2024-02-15T12:50:36;4.13;;;3.03;;
16314;SDS011;8266;52.150;4.768;2024-02-15T12:53:04;4.80;;;2.97;;
16314;SDS011;8266;52.150;4.768;2024-02-15T12:55:33;5.10;;;2.85;;
16314;SDS011;8266;52.150;4.768;2024-02-15T12:58:01;3.03;;;2.75;;
16314;SDS011;8266;52.150;4.768;2024-02-15T13:00:33;3.40;;;3.10;;
16314;SDS011;8266;52.150;4.768;2024-02-15T13:03:04;4.00;;;3.22;;
16314;SDS011;8266;52.150;4.768;2024-02-15T13:05:34;3.47;;;3.08;;
16314;SDS011;8266;52.150;4.768;2024-02-15T13:08:02;5.90;;;3.65;;
16314;SDS011;8266;52.150;4.768;2024-02-15T13:10:32;4.35;;;3.63;;
16314;SDS011;8266;52.150;4.768;2024-02-15T13:13:00;4.30;;;3.67;;
16314;SDS011;8266;52.150;4.768;2024-02-15T13:15:27;4.07;;;3.40;;
16314;SDS011;8266;52.150;4.768;2024-02-15T13:17:57;4.20;;;3.75;;
16314;SDS011;8266;52.150;4.768;2024-02-15T13:20:26;5.43;;;3.90;;
16314;SDS011;8266;52.150;4.768;2024-02-15T13:22:57;6.70;;;3.90;;
16314;SDS011;8266;52.150;4.768;2024-02-15T13:25:27;5.28;;;3.83;;
16314;SDS011;8266;52.150;4.768;2024-02-15T13:27:56;4.82;;;3.55;;
16314;SDS011;8266;52.150;4.768;2024-02-15T13:30:23;5.40;;;3.70;;
16314;SDS011;8266;52.150;4.768;2024-02-15T13:32:52;3.92;;;3.42;;
16314;SDS011;8266;52.150;4.768;2024-02-15T13:35:20;5.82;;;3.55;;
16314;SDS011;8266;52.150;4.768;2024-02-15T13:37:49;4.50;;;3.10;;
16314;SDS011;8266;52.150;4.768;2024-02-15T13:40:19;3.55;;;2.78;;
16314;SDS011;8266;52.150;4.768;2024-02-15T13:42:49;2.67;;;2.40;;
16314;SDS011;8266;52.150;4.768;2024-02-15T13:45:20;4.80;;;2.55;;
16314;SDS011;8266;52.150;4.768;2024-02-15T13:47:48;4.00;;;2.38;;
16314;SDS011;8266;52.150;4.768;2024-02-15T13:50:16;3.15;;;2.03;;
16314;SDS011;8266;52.150;4.768;2024-02-15T13:52:44;3.25;;;1.83;;
16314;SDS011;8266;52.150;4.768;2024-02-15T13:55:12;3.20;;;1.90;;
16314;SDS011;8266;52.150;4.768;2024-02-15T13:57:42;4.82;;;2.10;;
16314;SDS011;8266;52.150;4.768;2024-02-15T14:00:12;5.00;;;1.95;;
16314;SDS011;8266;52.150;4.768;2024-02-15T14:02:48;4.22;;;2.08;;
16314;SDS011;8266;52.150;4.768;2024-02-15T14:05:15;5.30;;;2.05;;
16314;SDS011;8266;52.150;4.768;2024-02-15T14:07:45;5.45;;;2.00;;
16314;SDS011;8266;52.150;4.768;2024-02-15T14:10:15;4.68;;;2.17;;
16314;SDS011;8266;52.150;4.768;2024-02-15T14:12:44;4.13;;;2.15;;
16314;SDS011;8266;52.150;4.768;2024-02-15T14:15:11;6.28;;;2.33;;
16314;SDS011;8266;52.150;4.768;2024-02-15T14:17:38;6.43;;;2.50;;
16314;SDS011;8266;52.150;4.768;2024-02-15T14:20:07;3.83;;;1.95;;
16314;SDS011;8266;52.150;4.768;2024-02-15T14:22:38;4.72;;;2.42;;
16314;SDS011;8266;52.150;4.768;2024-02-15T14:25:06;3.42;;;1.98;;
16314;SDS011;8266;52.150;4.768;2024-02-15T14:27:34;4.00;;;2.42;;
16314;SDS011;8266;52.150;4.768;2024-02-15T14:30:02;5.43;;;2.40;;
16314;SDS011;8266;52.150;4.768;2024-02-15T14:32:47;4.10;;;2.10;;
16314;SDS011;8266;52.150;4.768;2024-02-15T14:35:30;4.03;;;2.22;;
16314;SDS011;8266;52.150;4.768;2024-02-15T14:37:59;4.68;;;2.10;;
16314;SDS011;8266;52.150;4.768;2024-02-15T14:40:30;3.95;;;2.50;;
16314;SDS011;8266;52.150;4.768;2024-02-15T14:42:58;5.43;;;2.22;;
16314;SDS011;8266;52.150;4.768;2024-02-15T14:45:25;3.35;;;2.50;;
16314;SDS011;8266;52.150;4.768;2024-02-15T14:47:52;3.72;;;2.05;;
16314;SDS011;8266;52.150;4.768;2024-02-15T14:50:19;6.05;;;2.55;;
16314;SDS011;8266;52.150;4.768;2024-02-15T14:52:50;3.92;;;2.55;;
16314;SDS011;8266;52.150;4.768;2024-02-15T14:55:18;4.57;;;2.30;;
16314;SDS011;8266;52.150;4.768;2024-02-15T14:57:45;3.88;;;2.42;;
16314;SDS011;8266;52.150;4.768;2024-02-15T15:00:13;5.80;;;2.33;;
16314;SDS011;8266;52.150;4.768;2024-02-15T15:02:42;5.43;;;2.20;;
16314;SDS011;8266;52.150;4.768;2024-02-15T15:05:11;4.25;;;2.35;;
16314;SDS011;8266;52.150;4.768;2024-02-15T15:07:58;5.70;;;1.92;;
16314;SDS011;8266;52.150;4.768;2024-02-15T15:10:44;4.40;;;1.80;;
16314;SDS011;8266;52.150;4.768;2024-02-15T15:13:30;5.53;;;2.45;;
16314;SDS011;8266;52.150;4.768;2024-02-15T15:15:58;5.80;;;3.05;;
16314;SDS011;8266;52.150;4.768;2024-02-15T15:18:25;3.92;;;2.30;;
16314;SDS011;8266;52.150;4.768;2024-02-15T15:20:52;4.78;;;2.00;;
16314;SDS011;8266;52.150;4.768;2024-02-15T15:23:21;4.22;;;1.80;;
16314;SDS011;8266;52.150;4.768;2024-02-15T15:25:48;3.58;;;1.80;;
16314;SDS011;8266;52.150;4.768;2024-02-15T15:28:15;6.50;;;2.10;;
16314;SDS011;8266;52.150;4.768;2024-02-15T15:30:43;4.05;;;1.73;;